sensor_id;sensor_type;location;lat;lon;timestamp;pressure;altitude;pressure_sealevel;temperature;humidity
77537;BME280;67783;51.656;16.106;2023-02-21T00:00:30;101082.16;;;11.64;62.49
77537;BME280;67783;51.656;16.106;2023-02-21T00:03:49;101077.66;;;11.65;62.39
77537;BME280;67783;51.656;16.106;2023-02-21T00:07:03;101093.77;;;11.65;62.88
77537;BME280;67783;51.656;16.106;2023-02-21T00:10:26;101090.22;;;11.64;63.58
77537;BME280;67783;51.656;16.106;2023-02-21T00:13:40;101071.23;;;11.67;62.26
77537;BME280;67783;51.656;16.106;2023-02-21T00:16:54;101056.80;;;11.68;62.45
77537;BME280;67783;51.656;16.106;2023-02-21T00:20:08;101069.41;;;11.68;62.73
77537;BME280;67783;51.656;16.106;2023-02-21T00:23:35;101060.26;;;11.70;63.20
77537;BME280;67783;51.656;16.106;2023-02-21T00:26:49;101059.10;;;11.74;62.07
77537;BME280;67783;51.656;16.106;2023-02-21T00:30:03;101071.56;;;11.75;62.26
77537;BME280;67783;51.656;16.106;2023-02-21T00:33:17;101059.84;;;11.76;62.49
77537;BME280;67783;51.656;16.106;2023-02-21T00:36:40;101072.30;;;11.77;63.19
77537;BME280;67783;51.656;16.106;2023-02-21T00:39:53;101062.18;;;11.81;62.16
77537;BME280;67783;51.656;16.106;2023-02-21T00:43:07;101074.66;;;11.82;62.27
77537;BME280;67783;51.656;16.106;2023-02-21T00:46:21;101070.15;;;11.82;62.47
77537;BME280;67783;51.656;16.106;2023-02-21T00:49:44;101061.32;;;11.80;62.76
77537;BME280;67783;51.656;16.106;2023-02-21T00:52:58;101069.19;;;11.83;62.19
77537;BME280;67783;51.656;16.106;2023-02-21T00:56:12;101070.77;;;11.86;62.16
77537;BME280;67783;51.656;16.106;2023-02-21T00:59:26;101078.11;;;11.84;62.66
77537;BME280;67783;51.656;16.106;2023-02-21T01:02:49;101074.43;;;11.85;63.10
77537;BME280;67783;51.656;16.106;2023-02-21T01:06:08;101068.63;;;11.91;62.28
77537;BME280;67783;51.656;16.106;2023-02-21T01:09:22;101061.42;;;11.91;62.33
77537;BME280;67783;51.656;16.106;2023-02-21T01:12:35;101062.30;;;11.92;62.56
77537;BME280;67783;51.656;16.106;2023-02-21T01:15:59;101078.52;;;11.90;63.15
77537;BME280;67783;51.656;16.106;2023-02-21T01:19:13;101064.75;;;11.95;62.18
77537;BME280;67783;51.656;16.106;2023-02-21T01:22:28;101056.29;;;11.88;62.51
77537;BME280;67783;51.656;16.106;2023-02-21T01:25:41;101048.23;;;11.88;62.66
77537;BME280;67783;51.656;16.106;2023-02-21T01:29:04;101057.12;;;11.89;63.10
77537;BME280;67783;51.656;16.106;2023-02-21T01:32:18;101047.37;;;11.88;62.59
77537;BME280;67783;51.656;16.106;2023-02-21T01:35:32;101057.12;;;11.89;62.47
77537;BME280;67783;51.656;16.106;2023-02-21T01:38:46;101065.18;;;11.89;62.71
77537;BME280;67783;51.656;16.106;2023-02-21T01:42:09;101025.88;;;11.88;63.34
77537;BME280;67783;51.656;16.106;2023-02-21T01:45:37;101044.55;;;11.89;62.54
77537;BME280;67783;51.656;16.106;2023-02-21T01:48:48;101055.63;;;11.85;63.12
77537;BME280;67783;51.656;16.106;2023-02-21T01:52:04;101054.89;;;11.83;63.01
77537;BME280;67783;51.656;16.106;2023-02-21T01:55:25;101048.56;;;11.84;63.68
77537;BME280;67783;51.656;16.106;2023-02-21T01:58:39;101034.03;;;11.86;62.83
77537;BME280;67783;51.656;16.106;2023-02-21T02:02:00;101052.08;;;11.84;63.00
77537;BME280;67783;51.656;16.106;2023-02-21T02:05:16;101051.34;;;11.82;63.25
77537;BME280;67783;51.656;16.106;2023-02-21T02:08:31;101041.56;;;11.81;64.30
77537;BME280;67783;51.656;16.106;2023-02-21T02:11:59;101042.43;;;11.82;63.24
77537;BME280;67783;51.656;16.106;2023-02-21T02:15:21;101043.52;;;11.79;63.37
77537;BME280;67783;51.656;16.106;2023-02-21T02:38:01;101032.55;;;11.82;64.00
77537;BME280;67783;51.656;16.106;2023-02-21T02:41:23;101015.80;;;11.79;64.27
77537;BME280;67783;51.656;16.106;2023-02-21T02:44:37;101025.45;;;11.81;64.47
77537;BME280;67783;51.656;16.106;2023-02-21T02:47:42;101025.21;;;11.84;63.79
77537;BME280;67783;51.656;16.106;2023-02-21T02:50:47;101023.52;;;11.83;64.08
77537;BME280;67783;51.656;16.106;2023-02-21T02:53:55;101020.61;;;11.86;64.78
77537;BME280;67783;51.656;16.106;2023-02-21T02:56:59;101019.84;;;11.84;64.08
77537;BME280;67783;51.656;16.106;2023-02-21T03:00:04;101023.52;;;11.83;64.25
77537;BME280;67783;51.656;16.106;2023-02-21T03:06:29;101041.13;;;11.87;64.20
77537;BME280;67783;51.656;16.106;2023-02-21T03:22:37;101015.33;;;11.85;65.10
77537;BME280;67783;51.656;16.106;2023-02-21T03:25:40;101026.73;;;11.88;64.20
77537;BME280;67783;51.656;16.106;2023-02-21T03:28:43;101026.94;;;11.85;64.67
77537;BME280;67783;51.656;16.106;2023-02-21T03:31:52;101033.80;;;11.89;64.46
77537;BME280;67783;51.656;16.106;2023-02-21T03:34:55;101026.73;;;11.88;64.53
77537;BME280;67783;51.656;16.106;2023-02-21T03:38:00;101031.88;;;11.91;65.33
77537;BME280;67783;51.656;16.106;2023-02-21T03:41:02;101034.43;;;11.93;64.18
77537;BME280;67783;51.656;16.106;2023-02-21T03:44:04;101034.56;;;11.91;64.63
77537;BME280;67783;51.656;16.106;2023-02-21T03:47:06;101037.88;;;11.95;64.47
77537;BME280;67783;51.656;16.106;2023-02-21T03:50:08;101028.96;;;11.94;64.60
77537;BME280;67783;51.656;16.106;2023-02-21T03:53:09;101029.72;;;11.96;64.72
77537;BME280;67783;51.656;16.106;2023-02-21T03:56:11;101044.84;;;11.97;64.64
77537;BME280;67783;51.656;16.106;2023-02-21T03:59:16;101048.52;;;11.96;66.14
77537;BME280;67783;51.656;16.106;2023-02-21T04:02:19;101061.96;;;11.96;65.19
77537;BME280;67783;51.656;16.106;2023-02-21T04:05:20;101052.50;;;11.91;65.96
77537;BME280;67783;51.656;16.106;2023-02-21T04:08:22;101059.94;;;11.87;65.38
77537;BME280;67783;51.656;16.106;2023-02-21T04:11:24;101053.40;;;11.79;66.78
77537;BME280;67783;51.656;16.106;2023-02-21T04:14:37;101069.61;;;11.77;68.34
77537;BME280;67783;51.656;16.106;2023-02-21T04:17:39;101049.09;;;11.76;66.19
77537;BME280;67783;51.656;16.106;2023-02-21T04:20:40;101053.92;;;11.71;67.03
77537;BME280;67783;51.656;16.106;2023-02-21T04:23:43;101053.05;;;11.71;66.29
77537;BME280;67783;51.656;16.106;2023-02-21T04:26:45;101049.08;;;11.64;66.89
77537;BME280;67783;51.656;16.106;2023-02-21T04:29:46;101047.48;;;11.61;66.88
77537;BME280;67783;51.656;16.106;2023-02-21T04:32:48;101039.88;;;11.55;67.28
77537;BME280;67783;51.656;16.106;2023-02-21T04:35:53;101042.66;;;11.53;69.50
77537;BME280;67783;51.656;16.106;2023-02-21T04:38:55;101050.82;;;11.52;67.49
77537;BME280;67783;51.656;16.106;2023-02-21T04:41:57;101057.27;;;11.49;68.24
77537;BME280;67783;51.656;16.106;2023-02-21T04:44:59;101059.96;;;11.49;68.25
77537;BME280;67783;51.656;16.106;2023-02-21T04:48:01;101059.10;;;11.49;68.00
77537;BME280;67783;51.656;16.106;2023-02-21T04:51:03;101061.79;;;11.49;68.02
77537;BME280;67783;51.656;16.106;2023-02-21T04:54:04;101054.91;;;11.45;68.21
77537;BME280;67783;51.656;16.106;2023-02-21T04:57:09;101065.65;;;11.45;70.99
77537;BME280;67783;51.656;16.106;2023-02-21T05:00:12;101060.28;;;11.45;68.46
77537;BME280;67783;51.656;16.106;2023-02-21T05:03:14;101058.55;;;11.44;69.09
77537;BME280;67783;51.656;16.106;2023-02-21T05:06:17;101067.57;;;11.43;68.18
77537;BME280;67783;51.656;16.106;2023-02-21T05:09:19;101049.13;;;11.38;69.00
77537;BME280;67783;51.656;16.106;2023-02-21T05:12:31;101051.05;;;11.36;70.49
77537;BME280;67783;51.656;16.106;2023-02-21T05:15:33;101055.55;;;11.36;68.98
77537;BME280;67783;51.656;16.106;2023-02-21T05:18:35;101062.02;;;11.33;70.06
77537;BME280;67783;51.656;16.106;2023-02-21T05:21:41;101039.68;;;11.20;68.73
77537;BME280;67783;51.656;16.106;2023-02-21T05:24:43;101061.05;;;11.34;68.95
77537;BME280;67783;51.656;16.106;2023-02-21T05:27:52;101073.61;;;11.34;71.15
77537;BME280;67783;51.656;16.106;2023-02-21T05:30:54;101068.34;;;11.32;69.11
77537;BME280;67783;51.656;16.106;2023-02-21T05:33:56;101067.60;;;11.30;69.76
77537;BME280;67783;51.656;16.106;2023-02-21T05:36:58;101071.02;;;11.32;69.27
77537;BME280;67783;51.656;16.106;2023-02-21T05:40:00;101082.84;;;11.30;70.13
77537;BME280;67783;51.656;16.106;2023-02-21T05:43:11;101084.53;;;11.31;70.69
77537;BME280;67783;51.656;16.106;2023-02-21T05:46:22;101070.07;;;11.33;69.67
77537;BME280;67783;51.656;16.106;2023-02-21T05:49:24;101080.90;;;11.32;69.69
77537;BME280;67783;51.656;16.106;2023-02-21T05:52:38;101071.13;;;11.31;71.81
77537;BME280;67783;51.656;16.106;2023-02-21T05:55:40;101080.16;;;11.30;69.88
77537;BME280;67783;51.656;16.106;2023-02-21T05:58:41;101076.48;;;11.31;70.22
77537;BME280;67783;51.656;16.106;2023-02-21T06:01:43;101086.27;;;11.32;69.89
77537;BME280;67783;51.656;16.106;2023-02-21T06:04:45;101077.25;;;11.33;69.77
77537;BME280;67783;51.656;16.106;2023-02-21T06:07:58;101089.90;;;11.31;71.16
77537;BME280;67783;51.656;16.106;2023-02-21T06:11:00;101090.67;;;11.33;69.55
77537;BME280;67783;51.656;16.106;2023-02-21T06:14:04;101099.46;;;11.35;70.32
77537;BME280;67783;51.656;16.106;2023-02-21T06:17:06;101101.96;;;11.38;69.67
77537;BME280;67783;51.656;16.106;2023-02-21T06:20:12;101111.83;;;11.37;69.91
77537;BME280;67783;51.656;16.106;2023-02-21T06:23:19;101104.73;;;11.36;71.65
77537;BME280;67783;51.656;16.106;2023-02-21T06:26:21;101122.34;;;11.40;69.56
77537;BME280;67783;51.656;16.106;2023-02-21T06:29:23;101130.30;;;11.42;70.27
77537;BME280;67783;51.656;16.106;2023-02-21T06:32:25;101131.81;;;11.46;69.59
77537;BME280;67783;51.656;16.106;2023-02-21T06:35:28;101133.53;;;11.47;69.96
77537;BME280;67783;51.656;16.106;2023-02-21T06:38:39;101144.27;;;11.47;70.98
77537;BME280;67783;51.656;16.106;2023-02-21T06:41:44;101151.98;;;11.51;69.97
77537;BME280;67783;51.656;16.106;2023-02-21T06:44:47;101144.92;;;11.50;70.42
77537;BME280;67783;51.656;16.106;2023-02-21T06:47:49;101147.28;;;11.55;69.50
77537;BME280;67783;51.656;16.106;2023-02-21T06:50:51;101145.43;;;11.55;70.28
77537;BME280;67783;51.656;16.106;2023-02-21T06:54:00;101148.98;;;11.56;71.84
77537;BME280;67783;51.656;16.106;2023-02-21T06:57:02;101147.06;;;11.58;69.77
77537;BME280;67783;51.656;16.106;2023-02-21T07:00:07;101148.79;;;11.59;70.37
77537;BME280;67783;51.656;16.106;2023-02-21T07:03:09;101158.34;;;11.63;69.65
77537;BME280;67783;51.656;16.106;2023-02-21T07:06:10;101152.98;;;11.63;69.93
77537;BME280;67783;51.656;16.106;2023-02-21T07:09:21;101162.09;;;11.61;70.98
77537;BME280;67783;51.656;16.106;2023-02-21T07:12:23;101168.32;;;11.61;69.78
77537;BME280;67783;51.656;16.106;2023-02-21T07:15:24;101155.76;;;11.62;70.88
77537;BME280;67783;51.656;16.106;2023-02-21T07:18:27;101168.09;;;11.64;69.93
77537;BME280;67783;51.656;16.106;2023-02-21T07:21:29;101183.34;;;11.64;70.23
77537;BME280;67783;51.656;16.106;2023-02-21T07:24:41;101160.03;;;11.51;71.12
77537;BME280;67783;51.656;16.106;2023-02-21T07:27:46;101204.42;;;11.70;69.73
77537;BME280;67783;51.656;16.106;2023-02-21T07:30:48;101190.70;;;11.74;70.03
77537;BME280;67783;51.656;16.106;2023-02-21T07:33:50;101190.94;;;11.84;69.53
77537;BME280;67783;51.656;16.106;2023-02-21T07:36:51;101203.18;;;11.88;69.69
77537;BME280;67783;51.656;16.106;2023-02-21T07:40:03;101203.82;;;11.91;70.20
77537;BME280;67783;51.656;16.106;2023-02-21T07:43:07;101198.45;;;11.91;69.64
77537;BME280;67783;51.656;16.106;2023-02-21T07:46:13;101208.42;;;11.89;70.20
77537;BME280;67783;51.656;16.106;2023-02-21T07:49:15;101211.76;;;11.93;69.67
77537;BME280;67783;51.656;16.106;2023-02-21T07:52:17;101202.41;;;11.98;69.87
77537;BME280;67783;51.656;16.106;2023-02-21T07:55:23;101193.61;;;11.96;70.86
77537;BME280;67783;51.656;16.106;2023-02-21T07:58:27;101204.14;;;11.99;69.65
77537;BME280;67783;51.656;16.106;2023-02-21T08:01:32;101216.62;;;12.00;69.88
77537;BME280;67783;51.656;16.106;2023-02-21T08:04:34;101184.47;;;11.86;69.28
77537;BME280;67783;51.656;16.106;2023-02-21T08:07:36;101237.97;;;12.15;69.57
77537;BME280;67783;51.656;16.106;2023-02-21T08:10:43;101214.55;;;12.17;70.56
77537;BME280;67783;51.656;16.106;2023-02-21T08:13:45;101224.22;;;12.19;69.52
77537;BME280;67783;51.656;16.106;2023-02-21T08:16:47;101228.95;;;12.16;70.34
77537;BME280;67783;51.656;16.106;2023-02-21T08:19:49;101233.56;;;12.14;69.87
77537;BME280;67783;51.656;16.106;2023-02-21T08:22:50;101221.12;;;12.13;69.78
77537;BME280;67783;51.656;16.106;2023-02-21T08:25:52;101222.72;;;12.15;69.61
77537;BME280;67783;51.656;16.106;2023-02-21T08:28:54;101227.23;;;12.15;69.84
77537;BME280;67783;51.656;16.106;2023-02-21T08:31:59;101235.28;;;12.15;70.57
77537;BME280;67783;51.656;16.106;2023-02-21T08:35:01;101233.37;;;12.17;69.59
77537;BME280;67783;51.656;16.106;2023-02-21T08:38:05;101206.60;;;12.02;69.69
77537;BME280;67783;51.656;16.106;2023-02-21T08:41:10;101242.48;;;12.27;69.10
77537;BME280;67783;51.656;16.106;2023-02-21T08:44:14;101241.20;;;12.32;69.17
77537;BME280;67783;51.656;16.106;2023-02-21T08:47:22;101243.32;;;12.40;69.62
77537;BME280;67783;51.656;16.106;2023-02-21T08:50:26;101246.76;;;12.55;68.75
77537;BME280;67783;51.656;16.106;2023-02-21T08:53:28;101245.20;;;12.63;68.66
77537;BME280;67783;51.656;16.106;2023-02-21T08:56:30;101248.73;;;12.76;68.19
77537;BME280;67783;51.656;16.106;2023-02-21T08:59:32;101257.55;;;12.78;67.84
77537;BME280;67783;51.656;16.106;2023-02-21T09:02:40;101252.70;;;12.83;67.70
77537;BME280;67783;51.656;16.106;2023-02-21T09:05:42;101255.55;;;12.93;67.56
77537;BME280;67783;51.656;16.106;2023-02-21T09:08:44;101259.53;;;13.00;67.15
77537;BME280;67783;51.656;16.106;2023-02-21T09:11:46;101241.63;;;13.12;66.93
77537;BME280;67783;51.656;16.106;2023-02-21T09:14:49;101250.01;;;13.20;66.84
77537;BME280;67783;51.656;16.106;2023-02-21T09:18:01;101251.63;;;13.33;65.70
77537;BME280;67783;51.656;16.106;2023-02-21T09:21:03;101256.23;;;13.44;66.17
77537;BME280;67783;51.656;16.106;2023-02-21T09:24:06;101250.77;;;13.57;65.71
77537;BME280;67783;51.656;16.106;2023-02-21T09:27:08;101262.18;;;13.71;65.61
77537;BME280;67783;51.656;16.106;2023-02-21T09:30:16;101257.30;;;13.76;65.10
77537;BME280;67783;51.656;16.106;2023-02-21T09:33:21;101272.37;;;13.79;64.21
77537;BME280;67783;51.656;16.106;2023-02-21T09:36:23;101254.87;;;13.84;65.13
77537;BME280;67783;51.656;16.106;2023-02-21T09:39:27;101265.41;;;13.87;64.32
77537;BME280;67783;51.656;16.106;2023-02-21T09:42:30;101269.12;;;13.98;64.42
77537;BME280;67783;51.656;16.106;2023-02-21T09:45:34;101271.82;;;14.09;63.67
77537;BME280;67783;51.656;16.106;2023-02-21T09:48:43;101280.41;;;14.14;61.54
77537;BME280;67783;51.656;16.106;2023-02-21T09:51:47;101281.02;;;14.17;63.33
77537;BME280;67783;51.656;16.106;2023-02-21T09:54:55;101274.40;;;14.10;62.93
77537;BME280;67783;51.656;16.106;2023-02-21T09:57:58;101285.45;;;14.07;63.48
77537;BME280;67783;51.656;16.106;2023-02-21T10:01:05;101282.85;;;14.06;62.99
77537;BME280;67783;51.656;16.106;2023-02-21T10:10:46;101290.44;;;14.01;62.44
77537;BME280;67783;51.656;16.106;2023-02-21T10:20:27;101305.10;;;13.85;62.89
77537;BME280;67783;51.656;16.106;2023-02-21T10:23:37;101324.67;;;13.76;62.29
77537;BME280;67783;51.656;16.106;2023-02-21T10:26:45;101317.80;;;13.72;62.96
77537;BME280;67783;51.656;16.106;2023-02-21T10:29:53;101342.01;;;13.61;62.95
77537;BME280;67783;51.656;16.106;2023-02-21T10:32:56;101333.84;;;13.50;62.39
77537;BME280;67783;51.656;16.106;2023-02-21T10:35:58;101341.20;;;13.48;63.46
77537;BME280;67783;51.656;16.106;2023-02-21T10:39:25;101348.32;;;13.49;63.54
77537;BME280;67783;51.656;16.106;2023-02-21T10:45:44;101369.68;;;13.39;63.50
77537;BME280;67783;51.656;16.106;2023-02-21T10:48:52;101346.25;;;13.29;63.11
77537;BME280;67783;51.656;16.106;2023-02-21T10:55:17;101341.30;;;13.23;62.82
77537;BME280;67783;51.656;16.106;2023-02-21T10:58:25;101340.66;;;13.19;62.91
77537;BME280;67783;51.656;16.106;2023-02-21T11:01:39;101341.06;;;13.26;62.46
77537;BME280;67783;51.656;16.106;2023-02-21T11:04:42;101339.66;;;13.33;62.07
77537;BME280;67783;51.656;16.106;2023-02-21T11:10:56;101343.41;;;13.30;60.37
77537;BME280;67783;51.656;16.106;2023-02-21T11:17:15;101356.80;;;13.32;60.98
77537;BME280;67783;51.656;16.106;2023-02-21T11:20:21;101368.72;;;13.40;59.46
77537;BME280;67783;51.656;16.106;2023-02-21T11:23:30;101360.30;;;13.45;60.74
77537;BME280;67783;51.656;16.106;2023-02-21T11:26:43;101356.50;;;13.48;60.90
77537;BME280;67783;51.656;16.106;2023-02-21T11:29:47;101367.28;;;13.48;58.32
77537;BME280;67783;51.656;16.106;2023-02-21T11:32:53;101357.55;;;13.58;60.62
77537;BME280;67783;51.656;16.106;2023-02-21T11:36:07;101340.34;;;13.48;59.48
77537;BME280;67783;51.656;16.106;2023-02-21T11:39:23;101365.91;;;13.66;56.70
77537;BME280;67783;51.656;16.106;2023-02-21T11:42:32;101367.90;;;13.75;59.83
77537;BME280;67783;51.656;16.106;2023-02-21T11:45:37;101367.55;;;13.79;58.71
77537;BME280;67783;51.656;16.106;2023-02-21T11:55:15;101352.70;;;14.09;58.81
77537;BME280;67783;51.656;16.106;2023-02-21T11:58:28;101348.33;;;14.19;56.51
77537;BME280;67783;51.656;16.106;2023-02-21T12:14:51;101351.37;;;14.71;55.98
77537;BME280;67783;51.656;16.106;2023-02-21T12:21:23;101352.11;;;14.85;53.79
77537;BME280;67783;51.656;16.106;2023-02-21T12:27:51;101353.45;;;15.01;54.51
77537;BME280;67783;51.656;16.106;2023-02-21T12:31:07;101357.25;;;15.10;53.36
77537;BME280;67783;51.656;16.106;2023-02-21T12:37:29;101358.20;;;15.20;53.32
77537;BME280;67783;51.656;16.106;2023-02-21T12:50:34;101358.05;;;15.33;53.78
77537;BME280;67783;51.656;16.106;2023-02-21T12:56:59;101364.13;;;15.14;52.66
77537;BME280;67783;51.656;16.106;2023-02-21T13:03:41;101344.99;;;14.95;54.05
77537;BME280;67783;51.656;16.106;2023-02-21T13:10:06;101348.41;;;14.74;53.41
77537;BME280;67783;51.656;16.106;2023-02-21T13:13:16;101343.27;;;14.71;54.43
77537;BME280;67783;51.656;16.106;2023-02-21T13:16:20;101347.95;;;14.69;54.10
77537;BME280;67783;51.656;16.106;2023-02-21T13:19:31;101335.68;;;14.65;51.42
77537;BME280;67783;51.656;16.106;2023-02-21T13:26:14;101351.13;;;14.52;54.05
77537;BME280;67783;51.656;16.106;2023-02-21T13:29:25;101363.24;;;14.47;53.38
77537;BME280;67783;51.656;16.106;2023-02-21T13:32:39;101348.96;;;14.33;51.30
77537;BME280;67783;51.656;16.106;2023-02-21T13:35:47;101351.80;;;14.32;54.00
77537;BME280;67783;51.656;16.106;2023-02-21T13:39:02;101343.09;;;14.28;53.77
77537;BME280;67783;51.656;16.106;2023-02-21T13:42:17;101363.56;;;14.31;51.77
77537;BME280;67783;51.656;16.106;2023-02-21T13:45:24;101347.92;;;14.36;53.88
77537;BME280;67783;51.656;16.106;2023-02-21T13:48:28;101356.73;;;14.38;52.61
77537;BME280;67783;51.656;16.106;2023-02-21T14:01:18;101354.19;;;14.13;52.30
77537;BME280;67783;51.656;16.106;2023-02-21T14:07:43;101361.31;;;14.14;52.88
77537;BME280;67783;51.656;16.106;2023-02-21T14:10:54;101363.28;;;14.12;51.54
77537;BME280;67783;51.656;16.106;2023-02-21T14:14:04;101362.79;;;14.18;52.91
77537;BME280;67783;51.656;16.106;2023-02-21T14:17:11;101362.54;;;14.21;52.79
77537;BME280;67783;51.656;16.106;2023-02-21T14:20:15;101362.09;;;14.27;50.71
77537;BME280;67783;51.656;16.106;2023-02-21T14:23:21;101372.20;;;14.36;52.73
77537;BME280;67783;51.656;16.106;2023-02-21T14:32:56;101369.92;;;14.30;52.56
77537;BME280;67783;51.656;16.106;2023-02-21T14:36:06;101362.80;;;14.29;52.18
77537;BME280;67783;51.656;16.106;2023-02-21T14:39:10;101372.11;;;14.25;50.11
77537;BME280;67783;51.656;16.106;2023-02-21T14:52:19;101370.61;;;14.10;50.02
77537;BME280;67783;51.656;16.106;2023-02-21T15:02:09;101387.41;;;14.13;50.90
77537;BME280;67783;51.656;16.106;2023-02-21T15:05:25;101388.76;;;14.08;48.93
77537;BME280;67783;51.656;16.106;2023-02-21T15:08:28;101396.61;;;14.11;51.55
77537;BME280;67783;51.656;16.106;2023-02-21T15:11:34;101394.87;;;14.10;51.56
77537;BME280;67783;51.656;16.106;2023-02-21T15:14:50;101407.22;;;14.01;49.24
77537;BME280;67783;51.656;16.106;2023-02-21T15:24:18;101414.36;;;13.78;51.58
77537;BME280;67783;51.656;16.106;2023-02-21T15:27:20;101419.95;;;13.75;52.27
77537;BME280;67783;51.656;16.106;2023-02-21T15:30:29;101424.85;;;13.70;51.97
77537;BME280;67783;51.656;16.106;2023-02-21T15:33:40;101424.32;;;13.65;50.26
77537;BME280;67783;51.656;16.106;2023-02-21T15:36:48;101430.57;;;13.66;52.27
77537;BME280;67783;51.656;16.106;2023-02-21T15:39:57;101433.47;;;13.63;52.14
77537;BME280;67783;51.656;16.106;2023-02-21T15:43:00;101434.57;;;13.60;50.71
77537;BME280;67783;51.656;16.106;2023-02-21T15:46:06;101442.90;;;13.57;52.36
77537;BME280;67783;51.656;16.106;2023-02-21T15:49:15;101438.70;;;13.53;52.14
77537;BME280;67783;51.656;16.106;2023-02-21T15:55:42;101446.35;;;13.47;52.55
77537;BME280;67783;51.656;16.106;2023-02-21T16:02:14;101457.72;;;13.26;52.37
77537;BME280;67783;51.656;16.106;2023-02-21T16:05:27;101461.19;;;13.16;51.76
77537;BME280;67783;51.656;16.106;2023-02-21T16:08:29;101462.38;;;13.12;53.03
77537;BME280;67783;51.656;16.106;2023-02-21T16:11:42;101469.02;;;13.06;52.86
77537;BME280;67783;51.656;16.106;2023-02-21T16:14:57;101470.53;;;12.98;52.15
77537;BME280;67783;51.656;16.106;2023-02-21T16:18:03;101480.88;;;12.91;52.97
77537;BME280;67783;51.656;16.106;2023-02-21T16:21:08;101485.94;;;12.83;52.88
77537;BME280;67783;51.656;16.106;2023-02-21T16:24:27;101487.62;;;12.71;51.27
77537;BME280;67783;51.656;16.106;2023-02-21T16:27:29;101506.89;;;12.65;53.02
77537;BME280;67783;51.656;16.106;2023-02-21T16:30:31;101500.41;;;12.55;52.93
77537;BME280;67783;51.656;16.106;2023-02-21T16:33:44;101509.65;;;12.51;52.11
77537;BME280;67783;51.656;16.106;2023-02-21T16:36:46;101509.13;;;12.46;53.23
77537;BME280;67783;51.656;16.106;2023-02-21T16:39:53;101513.30;;;12.37;53.13
77537;BME280;67783;51.656;16.106;2023-02-21T16:42:56;101527.05;;;12.33;53.37
77537;BME280;67783;51.656;16.106;2023-02-21T16:46:01;101531.30;;;12.23;53.44
77537;BME280;67783;51.656;16.106;2023-02-21T16:49:08;101531.16;;;12.12;52.83
77537;BME280;67783;51.656;16.106;2023-02-21T16:52:15;101535.97;;;12.07;53.64
77537;BME280;67783;51.656;16.106;2023-02-21T16:55:18;101538.30;;;11.98;53.54
77537;BME280;67783;51.656;16.106;2023-02-21T16:58:30;101546.57;;;11.95;53.66
77537;BME280;67783;51.656;16.106;2023-02-21T17:01:33;101553.31;;;11.88;53.52
77537;BME280;67783;51.656;16.106;2023-02-21T17:04:38;101546.38;;;11.84;52.40
77537;BME280;67783;51.656;16.106;2023-02-21T17:07:40;101553.48;;;11.85;53.51
77537;BME280;67783;51.656;16.106;2023-02-21T17:10:42;101556.17;;;11.85;52.87
77537;BME280;67783;51.656;16.106;2023-02-21T17:13:44;101563.28;;;11.86;53.27
77537;BME280;67783;51.656;16.106;2023-02-21T17:16:46;101572.50;;;11.82;53.42
77537;BME280;67783;51.656;16.106;2023-02-21T17:19:58;101582.46;;;11.80;52.09
77537;BME280;67783;51.656;16.106;2023-02-21T17:23:00;101581.51;;;11.81;53.24
77537;BME280;67783;51.656;16.106;2023-02-21T17:26:03;101556.76;;;11.62;53.09
77537;BME280;67783;51.656;16.106;2023-02-21T17:29:06;101596.88;;;11.79;53.49
77537;BME280;67783;51.656;16.106;2023-02-21T17:32:09;101597.05;;;11.76;53.47
77537;BME280;67783;51.656;16.106;2023-02-21T17:35:20;101598.12;;;11.74;53.08
77537;BME280;67783;51.656;16.106;2023-02-21T17:38:24;101601.67;;;11.74;53.64
77537;BME280;67783;51.656;16.106;2023-02-21T17:41:26;101597.42;;;11.70;53.58
77537;BME280;67783;51.656;16.106;2023-02-21T17:44:30;101607.13;;;11.73;53.77
77537;BME280;67783;51.656;16.106;2023-02-21T17:47:33;101608.16;;;11.70;53.79
77537;BME280;67783;51.656;16.106;2023-02-21T17:50:40;101616.43;;;11.67;53.36
77537;BME280;67783;51.656;16.106;2023-02-21T17:53:42;101612.76;;;11.68;53.90
77537;BME280;67783;51.656;16.106;2023-02-21T17:56:43;101618.41;;;11.64;53.81
77537;BME280;67783;51.656;16.106;2023-02-21T17:59:45;101614.12;;;11.61;54.00
77537;BME280;67783;51.656;16.106;2023-02-21T18:02:48;101621.58;;;11.56;53.99
77537;BME280;67783;51.656;16.106;2023-02-21T18:06:00;101621.78;;;11.53;53.67
77537;BME280;67783;51.656;16.106;2023-02-21T18:09:03;101620.05;;;11.52;54.08
77537;BME280;67783;51.656;16.106;2023-02-21T18:12:07;101618.52;;;11.48;54.01
77537;BME280;67783;51.656;16.106;2023-02-21T18:15:09;101620.33;;;11.47;54.08
77537;BME280;67783;51.656;16.106;2023-02-21T18:18:11;101622.34;;;11.44;53.95
77537;BME280;67783;51.656;16.106;2023-02-21T18:21:21;101613.91;;;11.36;52.84
77537;BME280;67783;51.656;16.106;2023-02-21T18:24:23;101627.91;;;11.41;53.91
77537;BME280;67783;51.656;16.106;2023-02-21T18:27:27;101634.43;;;11.37;53.57
77537;BME280;67783;51.656;16.106;2023-02-21T18:30:29;101645.92;;;11.39;53.87
77537;BME280;67783;51.656;16.106;2023-02-21T18:33:31;101637.12;;;11.37;53.74
77537;BME280;67783;51.656;16.106;2023-02-21T18:36:48;101640.66;;;11.37;52.81
77537;BME280;67783;51.656;16.106;2023-02-21T18:39:51;101641.42;;;11.39;53.78
77537;BME280;67783;51.656;16.106;2023-02-21T18:42:53;101638.85;;;11.38;53.64
77537;BME280;67783;51.656;16.106;2023-02-21T18:45:57;101650.55;;;11.37;53.78
77537;BME280;67783;51.656;16.106;2023-02-21T18:49:06;101644.50;;;11.33;53.80